createdAt,value
2019-01-25T00:01:33.567Z,-3.40
2019-01-25T00:04:01.297Z,-3.60
2019-01-25T00:06:28.795Z,-3.60
2019-01-25T00:08:56.292Z,-3.70
2019-01-25T00:11:23.916Z,-3.70
2019-01-25T00:13:51.457Z,-3.70
2019-01-25T00:16:18.926Z,-3.70
2019-01-25T00:18:46.448Z,-3.70
2019-01-25T00:21:13.961Z,-3.70
2019-01-25T00:23:41.476Z,-3.60
2019-01-25T00:26:08.955Z,-3.70
2019-01-25T00:28:36.469Z,-3.70
2019-01-25T00:31:04.288Z,-3.70
2019-01-25T00:33:31.770Z,-3.70
2019-01-25T00:35:59.253Z,-3.80
2019-01-25T00:38:26.731Z,-3.80
2019-01-25T00:40:54.207Z,-3.80
2019-01-25T00:43:21.705Z,-3.80
2019-01-25T00:45:49.218Z,-3.80
2019-01-25T00:48:16.744Z,-3.90
2019-01-25T00:50:44.240Z,-3.80
2019-01-25T00:53:11.728Z,-3.90
2019-01-25T00:55:39.353Z,-3.90
2019-01-25T00:58:06.811Z,-3.90
2019-01-25T01:00:34.175Z,-3.90
2019-01-25T01:03:01.692Z,-3.90
2019-01-25T01:05:29.153Z,-3.90
2019-01-25T01:07:56.768Z,-3.90
2019-01-25T01:10:24.268Z,-3.90
2019-01-25T01:12:52.039Z,-3.90
2019-01-25T01:15:19.642Z,-3.90
2019-01-25T01:17:47.229Z,-4.00
2019-01-25T01:20:16.087Z,-3.90
2019-01-25T01:22:43.856Z,-3.90
2019-01-25T01:25:12.523Z,-4.00
2019-01-25T01:27:40.021Z,-4.00
2019-01-25T01:30:14.346Z,-4.00
2019-01-25T01:32:41.847Z,-4.00
2019-01-25T01:35:09.215Z,-4.10
2019-01-25T01:37:36.684Z,-4.10
2019-01-25T01:40:09.052Z,-4.20
2019-01-25T01:42:36.530Z,-4.20
2019-01-25T01:45:05.257Z,-4.30
2019-01-25T01:47:32.753Z,-4.30
2019-01-25T01:50:00.256Z,-4.30
2019-01-25T01:52:27.749Z,-4.30
2019-01-25T01:54:55.244Z,-4.30
2019-01-25T01:57:22.750Z,-4.30
2019-01-25T01:59:50.243Z,-4.20
2019-01-25T02:02:17.708Z,-4.30
2019-01-25T02:04:45.280Z,-4.30
2019-01-25T02:07:12.740Z,-4.30
2019-01-25T02:09:40.253Z,-4.40
2019-01-25T02:12:07.772Z,-4.40
2019-01-25T02:14:35.473Z,-4.40
2019-01-25T02:17:02.962Z,-4.40
2019-01-25T02:19:30.492Z,-4.40
2019-01-25T02:21:58.010Z,-4.40
2019-01-25T02:24:25.489Z,-4.40
2019-01-25T02:26:53.017Z,-4.30
2019-01-25T02:29:20.505Z,-4.30
2019-01-25T02:31:47.980Z,-4.30
2019-01-25T02:34:15.477Z,-4.30
2019-01-25T02:36:42.942Z,-4.30
2019-01-25T02:39:10.537Z,-4.30
2019-01-25T02:41:38.084Z,-4.30
2019-01-25T02:44:05.553Z,-4.30
2019-01-25T02:46:33.046Z,-4.30
2019-01-25T02:49:00.529Z,-4.20
2019-01-25T02:51:28.030Z,-4.30
2019-01-25T02:53:55.567Z,-4.30
2019-01-25T02:56:23.100Z,-3.40
2019-01-25T02:58:50.557Z,-4.30
2019-01-25T03:01:18.027Z,-4.30
2019-01-25T03:03:45.504Z,-4.30
2019-01-25T03:06:12.966Z,-4.20
2019-01-25T03:08:40.471Z,-4.20
2019-01-25T03:11:08.891Z,-4.20
2019-01-25T03:13:36.357Z,-4.20
2019-01-25T03:16:04.236Z,-4.00
2019-01-25T03:18:31.689Z,-4.20
2019-01-25T03:20:59.148Z,-4.10
2019-01-25T03:23:26.660Z,-4.20
2019-01-25T03:25:54.171Z,-4.10
2019-01-25T03:28:21.668Z,-4.20
2019-01-25T03:30:49.192Z,-4.10
2019-01-25T03:33:16.685Z,-4.10
2019-01-25T03:35:44.349Z,-4.10
2019-01-25T03:38:11.708Z,-4.10
2019-01-25T03:40:39.202Z,-4.10
2019-01-25T03:43:06.732Z,-4.10
2019-01-25T03:45:34.243Z,-4.10
2019-01-25T03:48:01.766Z,-4.10
2019-01-25T03:50:29.781Z,-4.10
2019-01-25T03:52:57.248Z,-4.10
2019-01-25T03:55:25.393Z,-4.20
2019-01-25T03:57:53.084Z,-4.10
2019-01-25T04:00:22.358Z,-3.90
2019-01-25T04:02:49.923Z,-4.10
2019-01-25T04:05:17.580Z,-4.10
2019-01-25T04:07:45.506Z,-4.10
2019-01-25T04:10:15.226Z,-4.10
2019-01-25T04:12:42.727Z,-4.10
2019-01-25T04:15:13.268Z,-4.10
2019-01-25T04:17:40.779Z,-4.10
2019-01-25T04:20:10.169Z,-4.00
2019-01-25T04:22:37.693Z,-4.00
2019-01-25T04:25:07.234Z,-4.00
2019-01-25T04:27:34.749Z,-4.00
2019-01-25T04:30:02.271Z,-4.10
2019-01-25T04:32:29.747Z,-4.10
2019-01-25T04:34:57.261Z,-4.10
2019-01-25T04:37:24.772Z,-4.00
2019-01-25T04:39:52.249Z,-4.10
2019-01-25T04:42:19.729Z,-4.10
2019-01-25T04:44:47.263Z,-4.10
2019-01-25T04:47:16.583Z,-4.10
2019-01-25T04:49:44.136Z,-4.10
2019-01-25T04:52:12.641Z,-4.10
2019-01-25T04:54:40.105Z,-4.10
2019-01-25T04:57:07.591Z,-4.10
2019-01-25T04:59:35.096Z,-2.80
2019-01-25T05:02:02.619Z,-4.10
2019-01-25T05:04:35.160Z,-4.10
2019-01-25T05:07:02.792Z,-4.10
2019-01-25T05:09:30.310Z,-4.00
2019-01-25T05:11:57.797Z,-4.10
2019-01-25T05:14:27.070Z,-4.10
2019-01-25T05:16:54.599Z,-4.10
2019-01-25T05:19:22.066Z,-4.00
2019-01-25T05:21:49.826Z,-4.10
2019-01-25T05:24:17.331Z,-4.10
2019-01-25T05:26:44.789Z,-4.10
2019-01-25T05:29:12.368Z,-4.10
2019-01-25T05:31:39.833Z,-4.10
2019-01-25T05:34:07.337Z,-4.10
2019-01-25T05:36:34.799Z,-4.10
2019-01-25T05:39:04.401Z,-4.10
2019-01-25T05:41:31.899Z,-4.10
2019-01-25T05:43:59.407Z,-4.10
2019-01-25T05:46:26.897Z,-4.10
2019-01-25T05:48:54.356Z,-4.10
2019-01-25T05:51:21.834Z,-4.10
2019-01-25T05:53:50.619Z,-2.20
2019-01-25T05:56:18.096Z,-4.10
2019-01-25T05:58:45.895Z,-4.10
2019-01-25T06:01:13.372Z,-4.10
2019-01-25T06:03:40.842Z,-4.10
2019-01-25T06:06:08.334Z,-4.10
2019-01-25T06:08:43.633Z,-4.10
2019-01-25T06:11:09.270Z,-4.10
2019-01-25T06:13:37.492Z,-4.10
2019-01-25T06:16:05.538Z,-4.10
2019-01-25T06:18:33.036Z,-4.10
2019-01-25T06:21:00.638Z,-4.10
2019-01-25T06:23:28.118Z,-4.10
2019-01-25T06:25:57.172Z,-4.10
2019-01-25T06:28:25.010Z,-4.10
2019-01-25T06:30:52.705Z,-4.10
2019-01-25T06:33:20.237Z,-4.10
2019-01-25T06:35:47.696Z,-4.10
2019-01-25T06:38:15.416Z,-4.10
2019-01-25T06:40:42.945Z,-4.10
2019-01-25T06:43:10.419Z,-4.10
2019-01-25T06:45:38.011Z,-4.00
2019-01-25T06:48:05.719Z,-4.00
2019-01-25T06:50:33.250Z,-4.10
2019-01-25T06:53:00.735Z,-4.00
2019-01-25T06:55:28.210Z,-4.00
2019-01-25T06:58:02.762Z,-4.00
2019-01-25T07:00:32.045Z,-4.00
2019-01-25T07:02:59.625Z,-4.00
2019-01-25T07:05:27.130Z,-4.00
2019-01-25T07:07:54.669Z,-4.00
2019-01-25T07:10:22.188Z,-4.00
2019-01-25T07:12:49.730Z,-4.00
2019-01-25T07:15:20.698Z,-2.70
2019-01-25T07:17:48.212Z,-4.00
2019-01-25T07:20:16.005Z,-3.90
2019-01-25T07:22:43.532Z,-3.90
2019-01-25T07:25:11.462Z,-3.90
2019-01-25T07:27:39.039Z,-3.90
2019-01-25T07:30:08.325Z,-5.40
2019-01-25T07:32:35.805Z,-3.80
2019-01-25T07:35:04.478Z,-3.80
2019-01-25T07:37:31.971Z,-3.80
2019-01-25T07:39:59.565Z,-3.80
2019-01-25T07:42:27.234Z,-3.70
2019-01-25T07:44:54.723Z,-3.70
2019-01-25T07:47:22.397Z,-3.10
2019-01-25T07:49:49.892Z,-3.60
2019-01-25T07:52:17.400Z,-2.60
2019-01-25T07:54:44.981Z,-3.60
2019-01-25T07:57:12.439Z,-3.50
2019-01-25T07:59:39.934Z,-3.50
2019-01-25T08:02:07.448Z,-3.20
2019-01-25T08:04:35.016Z,-3.40
2019-01-25T08:07:02.513Z,-3.10
2019-01-25T08:09:29.991Z,-3.20
2019-01-25T08:11:57.711Z,-3.20
2019-01-25T08:14:25.254Z,-3.20
2019-01-25T08:16:52.741Z,-3.10
2019-01-25T08:19:20.300Z,-3.00
2019-01-25T08:21:47.816Z,-3.00
2019-01-25T08:24:15.335Z,-3.00
2019-01-25T08:26:42.852Z,-2.90
2019-01-25T08:29:10.353Z,-2.90
2019-01-25T08:31:37.950Z,-2.90
2019-01-25T08:34:05.468Z,-2.80
2019-01-25T08:36:32.980Z,-2.90
2019-01-25T08:39:00.534Z,-2.80
2019-01-25T08:41:28.062Z,-2.80
2019-01-25T08:43:55.565Z,-2.80
2019-01-25T08:46:23.091Z,-2.80
2019-01-25T08:48:50.605Z,-2.80
2019-01-25T08:51:18.158Z,-2.80
2019-01-25T08:53:45.658Z,-2.80
2019-01-25T08:56:13.141Z,-2.70
2019-01-25T08:58:40.633Z,-2.70
2019-01-25T09:01:08.430Z,-2.70
2019-01-25T09:03:35.970Z,-2.60
2019-01-25T09:06:03.444Z,-2.60
2019-01-25T09:08:32.152Z,-2.50
2019-01-25T09:10:59.609Z,-2.50
2019-01-25T09:13:27.099Z,-2.50
2019-01-25T09:15:54.627Z,-2.40
2019-01-25T09:18:22.279Z,-2.40
2019-01-25T09:20:50.386Z,-2.40
2019-01-25T09:23:17.905Z,-2.40
2019-01-25T09:25:45.364Z,-2.30
2019-01-25T09:28:13.204Z,-2.30
2019-01-25T09:30:40.688Z,-2.30
2019-01-25T09:33:08.169Z,-2.30
2019-01-25T09:35:35.708Z,-2.30
2019-01-25T09:38:03.529Z,-2.20
2019-01-25T09:40:31.435Z,-2.20
2019-01-25T09:42:58.896Z,-2.20
2019-01-25T09:45:26.366Z,-2.30
2019-01-25T09:47:53.894Z,-2.20
2019-01-25T09:50:21.429Z,-2.20
2019-01-25T09:52:48.915Z,-2.10
2019-01-25T09:55:18.475Z,-2.00
2019-01-25T09:57:46.104Z,-2.10
2019-01-25T10:00:19.993Z,-1.00
2019-01-25T10:02:47.465Z,-2.00
2019-01-25T10:05:14.975Z,-1.30
2019-01-25T10:07:42.481Z,-1.90
2019-01-25T10:10:10.283Z,-2.00
2019-01-25T10:12:43.208Z,-1.40
2019-01-25T10:15:09.675Z,-1.90
2019-01-25T10:17:37.160Z,-1.90
2019-01-25T10:20:04.998Z,-1.90
2019-01-25T10:22:32.490Z,-1.90
2019-01-25T10:25:00.033Z,-1.90
2019-01-25T10:27:27.563Z,-2.10
2019-01-25T10:29:55.062Z,-2.20
2019-01-25T10:32:22.579Z,-2.30
2019-01-25T10:34:50.079Z,-2.10
2019-01-25T10:37:17.607Z,-2.20
2019-01-25T10:39:45.077Z,-2.10
2019-01-25T10:42:12.581Z,-2.00
2019-01-25T10:44:40.056Z,-2.00
2019-01-25T10:47:07.566Z,-2.00
2019-01-25T10:49:35.052Z,-2.00
2019-01-25T10:52:02.568Z,-2.00
2019-01-25T10:54:30.175Z,-2.00
2019-01-25T10:56:57.747Z,-2.00
2019-01-25T10:59:25.250Z,-2.00
2019-01-25T11:01:52.791Z,-1.50
2019-01-25T11:04:20.321Z,-2.00
2019-01-25T11:06:47.819Z,-1.90
2019-01-25T11:09:15.382Z,-1.80
2019-01-25T11:11:42.864Z,-1.90
2019-01-25T11:14:10.372Z,-1.90
2019-01-25T11:16:37.867Z,-1.70
2019-01-25T11:19:05.348Z,-1.80
2019-01-25T11:21:37.378Z,-1.70
2019-01-25T11:24:02.134Z,-1.80
2019-01-25T11:26:29.650Z,-2.00
2019-01-25T11:28:57.165Z,-1.60
2019-01-25T11:31:24.628Z,-2.00
2019-01-25T11:33:52.500Z,-2.00
2019-01-25T11:36:19.968Z,-2.00
2019-01-25T11:38:47.439Z,-2.10
2019-01-25T11:41:15.039Z,-2.10
2019-01-25T11:43:42.550Z,-2.10
2019-01-25T11:46:10.014Z,-2.00
2019-01-25T11:48:37.515Z,-1.90
2019-01-25T11:51:04.989Z,-1.80
2019-01-25T11:53:32.475Z,-1.70
2019-01-25T11:56:00.014Z,-1.70
2019-01-25T11:58:27.531Z,-1.70
2019-01-25T12:00:55.128Z,-1.10
2019-01-25T12:03:22.548Z,-1.60
2019-01-25T12:05:50.008Z,-1.60
2019-01-25T12:08:17.612Z,-1.70
2019-01-25T12:10:45.165Z,-1.80
2019-01-25T12:13:16.204Z,-1.90
2019-01-25T12:15:41.950Z,-2.00
2019-01-25T12:18:09.481Z,-2.10
2019-01-25T12:20:36.981Z,-2.20
2019-01-25T12:23:04.665Z,-2.30
2019-01-25T12:25:32.159Z,-2.40
2019-01-25T12:27:59.654Z,-2.30
2019-01-25T12:30:32.192Z,-2.30
2019-01-25T12:32:59.668Z,-2.40
2019-01-25T12:35:28.782Z,-2.40
2019-01-25T12:37:56.259Z,-2.30
2019-01-25T12:40:23.850Z,-2.20
2019-01-25T12:42:51.301Z,-1.80
2019-01-25T12:45:23.817Z,-2.10
2019-01-25T12:47:51.800Z,-2.10
2019-01-25T12:50:25.256Z,-2.10
2019-01-25T12:52:52.748Z,-2.10
2019-01-25T12:55:20.262Z,-2.00
2019-01-25T12:57:47.747Z,-2.00
2019-01-25T13:00:15.965Z,-1.20
2019-01-25T13:02:43.461Z,-2.20
2019-01-25T13:05:13.063Z,-2.40
2019-01-25T13:07:40.515Z,-2.50
2019-01-25T13:10:10.097Z,-2.50
2019-01-25T13:12:37.582Z,-2.60
2019-01-25T13:15:05.208Z,-2.40
2019-01-25T13:17:32.707Z,-2.50
2019-01-25T13:20:00.242Z,-2.40
2019-01-25T13:22:27.752Z,-2.40
2019-01-25T13:24:55.276Z,-2.40
2019-01-25T13:27:22.755Z,-2.40
2019-01-25T13:29:50.294Z,-2.30
2019-01-25T13:32:17.769Z,-2.20
2019-01-25T13:34:45.224Z,-1.50
2019-01-25T13:37:12.790Z,-2.00
2019-01-25T13:39:40.280Z,-2.10
2019-01-25T13:42:07.754Z,-2.20
2019-01-25T13:44:35.260Z,-2.20
2019-01-25T13:47:02.716Z,-2.20
2019-01-25T13:49:30.189Z,-2.20
2019-01-25T13:51:57.917Z,-2.20
2019-01-25T13:54:28.811Z,-2.10
2019-01-25T13:56:54.661Z,-2.10
2019-01-25T13:59:22.177Z,-2.10
2019-01-25T14:01:49.654Z,-1.90
2019-01-25T14:04:17.119Z,-2.30
2019-01-25T14:06:44.644Z,-2.40
2019-01-25T14:09:12.103Z,-2.40
2019-01-25T14:11:39.647Z,-2.40
2019-01-25T14:14:07.187Z,-2.40
2019-01-25T14:16:34.670Z,-2.30
2019-01-25T14:19:02.177Z,-2.30
2019-01-25T14:21:29.697Z,-2.30
2019-01-25T14:23:57.161Z,-2.30
2019-01-25T14:26:24.653Z,-2.40
2019-01-25T14:28:52.142Z,-2.40
2019-01-25T14:31:19.633Z,-2.50
2019-01-25T14:33:47.119Z,-2.50
2019-01-25T14:36:14.628Z,-2.60
2019-01-25T14:38:42.110Z,-2.60
2019-01-25T14:41:09.634Z,-2.50
2019-01-25T14:43:37.191Z,-2.50
2019-01-25T14:46:04.827Z,-2.50
2019-01-25T14:48:32.322Z,-2.50
2019-01-25T14:50:59.780Z,-2.60
2019-01-25T14:53:27.310Z,-2.60
2019-01-25T14:55:54.793Z,-2.60
2019-01-25T14:58:22.279Z,-2.60
2019-01-25T15:00:49.794Z,-2.60
2019-01-25T15:03:17.272Z,-2.70
2019-01-25T15:05:44.771Z,-2.60
2019-01-25T15:08:12.251Z,-2.70
2019-01-25T15:10:39.748Z,-2.70
2019-01-25T15:13:08.101Z,-2.80
2019-01-25T15:15:35.608Z,-2.80
2019-01-25T15:18:04.567Z,-2.90
2019-01-25T15:20:32.066Z,-2.90
2019-01-25T15:22:59.555Z,-2.90
2019-01-25T15:25:27.076Z,-3.00
2019-01-25T15:27:54.631Z,-3.00
2019-01-25T15:30:30.346Z,-3.00
2019-01-25T15:32:57.803Z,-3.00
2019-01-25T15:35:25.337Z,-3.00
2019-01-25T15:37:52.805Z,-3.00
2019-01-25T15:40:20.748Z,-3.00
2019-01-25T15:42:48.242Z,-2.90
2019-01-25T15:45:16.864Z,-3.00
2019-01-25T15:47:44.405Z,-3.00
2019-01-25T15:50:23.880Z,-3.00
2019-01-25T15:52:51.347Z,-3.00
2019-01-25T15:55:19.196Z,-3.00
2019-01-25T15:57:46.819Z,-3.00
2019-01-25T16:00:16.377Z,-3.00
2019-01-25T16:02:43.876Z,-3.00
2019-01-25T16:05:13.764Z,-2.90
2019-01-25T16:07:41.249Z,-2.90
2019-01-25T16:10:11.105Z,-2.90
2019-01-25T16:12:38.606Z,-2.90
2019-01-25T16:15:08.725Z,-2.90
2019-01-25T16:17:36.219Z,-2.90
2019-01-25T16:20:05.351Z,-2.90
2019-01-25T16:22:32.830Z,-2.90
2019-01-25T16:25:00.297Z,-2.90
2019-01-25T16:27:27.853Z,-2.90
2019-01-25T16:29:55.338Z,-2.90
2019-01-25T16:32:22.817Z,-2.90
2019-01-25T16:34:50.324Z,-2.90
2019-01-25T16:37:17.817Z,-2.90
2019-01-25T16:39:45.553Z,-2.90
2019-01-25T16:42:13.046Z,-2.90
2019-01-25T16:44:40.518Z,-2.90
2019-01-25T16:47:08.207Z,-2.90
2019-01-25T16:49:35.701Z,-2.90
2019-01-25T16:52:03.325Z,-2.90
2019-01-25T16:54:30.849Z,-2.90
2019-01-25T16:56:58.372Z,-2.90
2019-01-25T16:59:25.894Z,-2.20
2019-01-25T17:01:53.429Z,-2.90
2019-01-25T17:04:20.950Z,-2.90
2019-01-25T17:06:48.491Z,-2.90
2019-01-25T17:09:15.997Z,-2.90
2019-01-25T17:11:43.528Z,-2.90
2019-01-25T17:14:11.049Z,-2.90
2019-01-25T17:16:38.568Z,-2.90
2019-01-25T17:19:06.472Z,-2.90
2019-01-25T17:21:33.994Z,-2.90
2019-01-25T17:24:01.506Z,-2.90
2019-01-25T17:26:29.267Z,-2.90
2019-01-25T17:28:56.743Z,-2.90
2019-01-25T17:31:24.207Z,-2.90
2019-01-25T17:33:51.714Z,-2.90
2019-01-25T17:36:19.223Z,-2.70
2019-01-25T17:38:46.732Z,-2.90
2019-01-25T17:41:14.251Z,-2.90
2019-01-25T17:43:41.721Z,-2.90
2019-01-25T17:46:09.240Z,-2.90
2019-01-25T17:48:36.699Z,-2.90
2019-01-25T17:51:04.172Z,-2.90
2019-01-25T17:53:31.666Z,-2.90
2019-01-25T17:55:59.181Z,-2.90
2019-01-25T17:58:26.735Z,-2.90
2019-01-25T18:00:57.329Z,-2.90
2019-01-25T18:03:24.848Z,-2.90
2019-01-25T18:05:52.328Z,-2.90
2019-01-25T18:08:19.811Z,-2.90
2019-01-25T18:10:49.100Z,-2.90
2019-01-25T18:13:16.572Z,-2.90
2019-01-25T18:15:44.036Z,-2.90
2019-01-25T18:18:11.643Z,-2.90
2019-01-25T18:20:39.224Z,-2.90
2019-01-25T19:03:56.472Z,-2.60
2019-01-25T19:06:23.994Z,-2.60
2019-01-25T19:08:51.894Z,-2.60
2019-01-25T19:11:19.371Z,-0.20
2019-01-25T19:13:48.774Z,-2.60
2019-01-25T19:16:16.466Z,-2.60
2019-01-25T19:18:44.304Z,-2.60
2019-01-25T19:21:14.904Z,-2.60
2019-01-25T19:23:42.404Z,-2.60
2019-01-25T19:26:11.109Z,-2.60
2019-01-25T19:28:38.687Z,-2.60
2019-01-25T19:31:06.257Z,-2.60
2019-01-25T19:33:33.805Z,-2.60
2019-01-25T19:36:02.639Z,-2.60
2019-01-25T19:38:43.866Z,-2.50
2019-01-25T19:41:11.392Z,-2.50
2019-01-25T19:43:41.625Z,-1.30
2019-01-25T19:50:00.571Z,-2.50
2019-01-25T19:53:47.386Z,-2.80
2019-01-25T19:56:16.876Z,-2.30
2019-01-25T19:58:48.739Z,-2.50
2019-01-25T20:01:33.347Z,-2.50
2019-01-25T20:08:31.151Z,-2.40
2019-01-25T20:11:10.464Z,-2.10
2019-01-25T20:13:29.271Z,-2.20
2019-01-25T20:15:56.956Z,-2.40
2019-01-25T20:18:24.720Z,-2.40
2019-01-25T20:20:55.281Z,-2.30
2019-01-25T20:23:24.449Z,-2.40
2019-01-25T20:52:27.338Z,-1.40
2019-01-25T20:54:54.939Z,-2.30
2019-01-25T20:57:35.032Z,-2.30
2019-01-25T21:52:57.863Z,-1.90
2019-01-25T21:55:25.457Z,-1.80
2019-01-25T21:57:53.065Z,-1.80
2019-01-25T22:00:22.932Z,-1.80
2019-01-25T22:02:53.610Z,-1.70
2019-01-25T22:05:21.265Z,-1.80
2019-01-25T22:07:51.613Z,-1.70
2019-01-25T22:10:33.686Z,-1.70
2019-01-25T22:13:01.388Z,-1.70
2019-01-25T22:15:29.044Z,-1.60
2019-01-25T22:17:58.907Z,-1.60
2019-01-25T22:20:27.118Z,-1.60
2019-01-25T22:22:57.861Z,-1.60
2019-01-25T22:25:25.799Z,-1.40
2019-01-25T22:27:54.914Z,-1.60
2019-01-25T22:30:24.846Z,-1.60
2019-01-25T22:32:52.489Z,-1.60
2019-01-25T22:35:20.236Z,-1.50
2019-01-25T22:37:47.755Z,-1.50
2019-01-25T22:40:17.659Z,-1.50
2019-01-25T22:42:45.200Z,-1.50
2019-01-25T22:45:14.871Z,-1.50
2019-01-25T22:47:42.536Z,-1.50
2019-01-25T22:50:13.432Z,-1.50
2019-01-25T22:52:41.023Z,-1.50
2019-01-25T22:55:10.160Z,-1.40
2019-01-25T22:57:37.801Z,-1.40
2019-01-25T23:00:15.769Z,-1.50
2019-01-25T23:02:43.369Z,-1.40
2019-01-25T23:05:48.479Z,-1.40
2019-01-25T23:08:15.944Z,-1.40
2019-01-25T23:10:43.440Z,-1.40
2019-01-25T23:13:10.951Z,-1.40
2019-01-25T23:15:38.465Z,-1.40
2019-01-25T23:18:05.925Z,-1.40
2019-01-25T23:20:33.461Z,-1.40
2019-01-25T23:23:00.949Z,-1.40
2019-01-25T23:25:28.418Z,-1.40
2019-01-25T23:27:55.986Z,-1.40
2019-01-25T23:30:23.463Z,-1.30
2019-01-25T23:32:50.976Z,-1.30
2019-01-25T23:35:18.488Z,-1.30
2019-01-25T23:37:46.062Z,-1.30
2019-01-25T23:40:14.561Z,-1.30
2019-01-25T23:42:42.020Z,-1.30
2019-01-25T23:45:10.885Z,-1.30
2019-01-25T23:47:38.351Z,-1.20
2019-01-25T23:50:08.111Z,-1.30
2019-01-25T23:52:35.587Z,-1.20
2019-01-25T23:55:03.612Z,-1.30
2019-01-25T23:57:31.319Z,-1.20
2019-01-25T23:59:58.780Z,-1.30
